Time;durP1;ratioP1;P1;durP2;ratioP2;P2;SDS_P1;SDS_P2;PMS_P1;PMS_P2;Temp;Humidity;BMP_temperature;BMP_pressure;BME280_temperature;BME280_humidity;BME280_pressure;Samples;Min_cycle;Max_cycle;Signal;HPM_P1;HPM_P2
2022/04/05 00:01:40;;;;;;;6.60;6.00;;;10.60;45.70;;;;;;5007426;28;20225;-46
2022/04/05 00:04:06;;;;;;;6.43;5.80;;;10.50;45.80;;;;;;5005350;28;20496;-44
2022/04/05 00:06:31;;;;;;;5.80;5.30;;;10.40;46.10;;;;;;5008917;28;20225;-44
2022/04/05 00:08:57;;;;;;;8.50;5.93;;;10.40;46.30;;;;;;5007009;28;20194;-47
2022/04/05 00:11:23;;;;;;;7.70;6.30;;;10.80;46.00;;;;;;5002101;28;20190;-44
2022/04/05 00:13:48;;;;;;;6.73;6.13;;;10.70;45.60;;;;;;5008777;28;20286;-50
2022/04/05 00:16:14;;;;;;;6.47;5.97;;;10.50;45.70;;;;;;5006399;28;20202;-48
2022/04/05 00:18:39;;;;;;;8.27;6.23;;;10.50;45.90;;;;;;4999969;28;20219;-46
2022/04/05 00:21:06;;;;;;;7.30;6.07;;;10.50;45.90;;;;;;5002284;28;20221;-45
2022/04/05 00:23:32;;;;;;;6.00;5.50;;;10.50;46.10;;;;;;5004278;28;20216;-45
2022/04/05 00:25:57;;;;;;;6.33;5.73;;;10.30;46.10;;;;;;5000121;28;20957;-46
2022/04/05 00:28:23;;;;;;;6.57;5.97;;;10.30;46.30;;;;;;4997053;28;20444;-46
2022/04/05 00:30:48;;;;;;;7.30;6.60;;;10.30;46.20;;;;;;5001904;28;20313;-44
2022/04/05 00:33:14;;;;;;;7.70;6.63;;;10.00;46.40;;;;;;5000621;28;20213;-45
2022/04/05 00:35:40;;;;;;;7.30;6.60;;;9.80;47.80;;;;;;4995497;28;20198;-45
2022/04/05 00:38:06;;;;;;;6.07;5.53;;;9.80;48.00;;;;;;5004466;28;20198;-45
2022/04/05 00:40:32;;;;;;;6.67;5.70;;;9.50;48.40;;;;;;5003952;28;20245;-43
2022/04/05 00:43:00;;;;;;;7.27;5.90;;;9.40;49.00;;;;;;5002745;28;20445;-45
2022/04/05 00:45:25;;;;;;;7.43;5.97;;;9.50;49.00;;;;;;5007075;28;20307;-45
2022/04/05 00:47:51;;;;;;;7.90;5.23;;;9.60;48.90;;;;;;5009411;28;20472;-43
2022/04/05 00:50:22;;;;;;;6.43;5.83;;;9.70;48.80;;;;;;5008706;28;20993;-47
2022/04/05 00:52:49;;;;;;;10.50;6.47;;;9.60;48.70;;;;;;5002690;28;20959;-44
2022/04/05 00:55:24;;;;;;;7.43;5.83;;;9.60;48.70;;;;;;5003719;28;20448;-44
2022/04/05 00:57:53;;;;;;;7.90;6.27;;;9.70;49.00;;;;;;4994646;28;20453;-48
2022/04/05 01:00:19;;;;;;;7.90;5.27;;;9.70;48.90;;;;;;5005227;28;20532;-47
2022/04/05 01:02:48;;;;;;;8.73;7.10;;;9.70;49.30;;;;;;5006064;28;20516;-45
2022/04/05 01:05:17;;;;;;;6.67;5.97;;;9.60;48.50;;;;;;5003688;28;20222;-44
2022/04/05 01:07:45;;;;;;;7.10;6.40;;;9.60;49.10;;;;;;5004349;28;20532;-43
2022/04/05 01:10:11;;;;;;;6.90;6.30;;;9.60;49.30;;;;;;4987055;28;20846;-48
2022/04/05 01:12:37;;;;;;;6.80;6.10;;;9.80;49.10;;;;;;5007966;28;20433;-43
2022/04/05 01:15:03;;;;;;;6.73;6.03;;;10.00;48.20;;;;;;5005582;28;20194;-44
2022/04/05 01:17:30;;;;;;;7.30;6.17;;;10.10;48.00;;;;;;5004531;28;20932;-49
2022/04/05 01:19:55;;;;;;;10.10;6.07;;;10.20;48.10;;;;;;5009681;28;20928;-45
2022/04/05 01:22:21;;;;;;;7.53;6.80;;;10.40;48.00;;;;;;5000220;28;20444;-46
2022/04/05 01:24:47;;;;;;;7.50;6.70;;;10.50;47.60;;;;;;5005838;28;20649;-48
2022/04/05 01:27:19;;;;;;;7.37;5.70;;;10.30;47.40;;;;;;5003526;28;20213;-44
2022/04/05 01:29:47;;;;;;;6.20;5.60;;;10.50;47.50;;;;;;5005164;28;20304;-45
2022/04/05 01:32:13;;;;;;;6.50;5.90;;;10.70;47.60;;;;;;5007890;28;20448;-43
2022/04/05 01:34:39;;;;;;;7.37;5.90;;;10.60;48.10;;;;;;5005629;28;20452;-50
2022/04/05 01:37:07;;;;;;;7.97;5.77;;;10.50;48.10;;;;;;5003594;28;20562;-45
2022/04/05 01:39:35;;;;;;;8.10;6.20;;;10.30;49.00;;;;;;4991157;28;20487;-48
2022/04/05 01:42:03;;;;;;;8.00;6.10;;;10.30;48.70;;;;;;5003480;28;20429;-43
2022/04/05 01:44:31;;;;;;;7.17;5.97;;;10.30;49.50;;;;;;4998802;28;20861;-45
2022/04/05 01:46:57;;;;;;;7.27;6.57;;;10.50;49.30;;;;;;5006960;28;20511;-48
2022/04/05 01:49:23;;;;;;;7.00;6.23;;;10.50;49.10;;;;;;4998269;28;20515;-44
2022/04/05 01:51:49;;;;;;;10.40;6.17;;;10.50;48.90;;;;;;5002509;28;20198;-43
2022/04/05 01:54:16;;;;;;;6.63;5.93;;;10.30;49.10;;;;;;5004626;28;20471;-45
2022/04/05 01:56:48;;;;;;;8.30;6.27;;;9.90;50.80;;;;;;4998872;28;20457;-44
2022/04/05 01:59:20;;;;;;;7.03;6.37;;;9.90;51.60;;;;;;4994702;28;20441;-46
2022/04/05 02:01:46;;;;;;;8.37;6.60;;;9.90;51.80;;;;;;5006793;28;20531;-44
2022/04/05 02:04:12;;;;;;;7.30;5.83;;;9.80;51.90;;;;;;5005362;28;20538;-48
2022/04/05 02:06:43;;;;;;;7.37;6.67;;;10.10;50.90;;;;;;5006368;28;20476;-47
2022/04/05 02:09:09;;;;;;;7.63;5.70;;;10.20;50.70;;;;;;5008484;28;20453;-46
2022/04/05 02:11:35;;;;;;;6.33;5.53;;;10.10;50.70;;;;;;4998842;28;21238;-45
2022/04/05 02:14:01;;;;;;;7.27;6.27;;;10.20;50.60;;;;;;5004459;28;20437;-48
2022/04/05 02:16:26;;;;;;;7.87;6.60;;;10.00;51.20;;;;;;5004360;28;20198;-44
2022/04/05 02:18:53;;;;;;;8.03;6.10;;;9.70;52.20;;;;;;5007527;28;20190;-44
2022/04/05 02:21:18;;;;;;;7.90;6.57;;;9.90;52.40;;;;;;5000647;28;20198;-45
2022/04/05 02:23:44;;;;;;;7.00;6.30;;;10.10;51.80;;;;;;4999942;28;20480;-44
2022/04/05 02:26:11;;;;;;;7.60;6.67;;;10.20;51.80;;;;;;4999607;28;20194;-43
2022/04/05 02:28:36;;;;;;;7.33;6.17;;;10.20;51.90;;;;;;4998637;28;20252;-46
2022/04/05 02:31:02;;;;;;;7.20;6.53;;;10.20;51.90;;;;;;5006466;28;20488;-44
2022/04/05 02:33:28;;;;;;;6.87;6.17;;;9.70;53.00;;;;;;5008760;28;20842;-44
2022/04/05 02:35:53;;;;;;;8.07;5.90;;;9.90;53.40;;;;;;5005612;28;20699;-45
2022/04/05 02:38:19;;;;;;;7.20;6.50;;;10.00;52.70;;;;;;5003559;28;20532;-44
2022/04/05 02:40:45;;;;;;;8.53;6.93;;;10.00;52.60;;;;;;5004409;28;20191;-47
2022/04/05 02:43:11;;;;;;;8.00;7.10;;;10.10;52.50;;;;;;4996244;28;20275;-45
2022/04/05 02:45:37;;;;;;;7.67;6.27;;;10.00;52.60;;;;;;4999509;28;20488;-44
2022/04/05 02:48:03;;;;;;;7.43;6.10;;;10.10;52.70;;;;;;5003360;28;20467;-44
2022/04/05 02:50:29;;;;;;;9.00;6.47;;;10.10;52.00;;;;;;5005398;28;20209;-49
2022/04/05 02:52:55;;;;;;;6.27;5.67;;;10.10;52.20;;;;;;5002699;28;20210;-43
2022/04/05 02:55:21;;;;;;;7.83;6.37;;;10.00;52.40;;;;;;4995589;28;20199;-47
2022/04/05 02:57:47;;;;;;;8.03;6.77;;;10.30;52.60;;;;;;4982761;28;20249;-47
2022/04/05 03:00:15;;;;;;;6.70;6.00;;;10.20;52.00;;;;;;5002019;28;20437;-44
2022/04/05 03:02:42;;;;;;;7.33;6.53;;;10.00;52.80;;;;;;5011187;28;20587;-47
2022/04/05 03:05:08;;;;;;;7.47;6.67;;;10.00;53.50;;;;;;5003876;28;20870;-47
2022/04/05 03:07:35;;;;;;;8.57;6.80;;;10.20;53.80;;;;;;5000878;28;20447;-46
2022/04/05 03:10:06;;;;;;;11.67;6.10;;;10.30;53.60;;;;;;5006640;28;20532;-47
2022/04/05 03:12:33;;;;;;;8.73;6.57;;;10.40;53.20;;;;;;5003228;28;20453;-46
2022/04/05 03:14:58;;;;;;;10.13;5.63;;;10.10;53.20;;;;;;5001511;28;20849;-44
2022/04/05 03:17:24;;;;;;;8.30;6.10;;;10.10;53.60;;;;;;5006989;28;20449;-43
2022/04/05 03:19:49;;;;;;;7.33;6.60;;;10.00;53.90;;;;;;5004259;28;20600;-45
2022/04/05 03:22:16;;;;;;;7.90;7.10;;;9.80;54.80;;;;;;5001814;28;20213;-48
2022/04/05 03:24:42;;;;;;;7.27;6.10;;;9.80;55.60;;;;;;5008850;28;20269;-44
2022/04/05 03:27:08;;;;;;;7.20;6.57;;;9.70;55.20;;;;;;5010566;28;20433;-47
2022/04/05 03:29:34;;;;;;;7.20;6.40;;;9.90;55.60;;;;;;4997829;28;20464;-46
2022/04/05 03:32:00;;;;;;;9.03;7.03;;;10.00;54.90;;;;;;5002330;28;20254;-44
2022/04/05 03:34:25;;;;;;;7.33;6.53;;;10.10;55.10;;;;;;5003489;28;20194;-47
2022/04/05 03:36:51;;;;;;;8.07;6.93;;;10.30;54.70;;;;;;5009807;28;20202;-48
2022/04/05 03:39:17;;;;;;;10.70;6.87;;;10.50;55.00;;;;;;4997451;28;20252;-48
2022/04/05 03:41:44;;;;;;;13.53;6.60;;;10.50;54.90;;;;;;5000822;28;20190;-44
2022/04/05 03:44:09;;;;;;;7.83;7.03;;;10.40;54.30;;;;;;5005201;28;20245;-43
2022/04/05 03:46:35;;;;;;;8.00;6.73;;;10.20;54.30;;;;;;5000518;28;20445;-44
2022/04/05 03:49:00;;;;;;;8.50;7.43;;;10.10;54.60;;;;;;5004812;28;20639;-45
2022/04/05 03:51:26;;;;;;;8.73;7.90;;;10.20;54.90;;;;;;5006658;28;20238;-44
2022/04/05 03:53:54;;;;;;;7.23;6.10;;;10.20;55.70;;;;;;5008795;28;20583;-46
2022/04/05 03:56:20;;;;;;;8.20;7.00;;;10.30;55.50;;;;;;5005516;28;20445;-44
2022/04/05 03:58:46;;;;;;;7.00;6.00;;;10.50;55.40;;;;;;5004222;28;20454;-45
2022/04/05 04:01:11;;;;;;;9.03;6.90;;;10.40;54.70;;;;;;5002400;28;20437;-44
2022/04/05 04:03:37;;;;;;;9.43;6.60;;;10.20;54.30;;;;;;5009532;28;20277;-44
2022/04/05 04:06:03;;;;;;;7.60;6.80;;;10.10;54.60;;;;;;5011533;28;20198;-50
2022/04/05 04:08:28;;;;;;;6.67;6.03;;;10.10;54.40;;;;;;5000439;28;20193;-44
2022/04/05 04:10:54;;;;;;;9.20;6.70;;;10.20;54.90;;;;;;5001034;28;20190;-46
2022/04/05 04:13:20;;;;;;;8.07;6.77;;;10.20;55.20;;;;;;4999417;28;20202;-47
2022/04/05 04:15:46;;;;;;;8.37;7.07;;;10.40;55.40;;;;;;5001231;28;20217;-46
2022/04/05 04:18:11;;;;;;;7.80;6.80;;;10.50;55.20;;;;;;5007126;28;21144;-44
2022/04/05 04:20:43;;;;;;;12.50;7.03;;;10.40;55.20;;;;;;4983278;28;20209;-43
2022/04/05 04:23:10;;;;;;;7.77;7.03;;;10.40;55.00;;;;;;5003404;28;20193;-45
2022/04/05 04:25:39;;;;;;;8.90;6.97;;;10.30;54.70;;;;;;5004975;28;20484;-46
2022/04/05 04:28:05;;;;;;;8.67;7.07;;;10.40;55.30;;;;;;4998193;28;20444;-44
2022/04/05 04:30:35;;;;;;;10.03;7.67;;;10.20;55.30;;;;;;5004504;28;20455;-44
2022/04/05 04:33:01;;;;;;;6.73;6.03;;;10.30;55.50;;;;;;5010192;28;20482;-44
2022/04/05 04:35:28;;;;;;;8.97;7.50;;;10.40;55.50;;;;;;5005053;28;20457;-44
2022/04/05 04:37:54;;;;;;;9.83;6.50;;;10.40;55.60;;;;;;4999416;28;20450;-46
2022/04/05 04:40:20;;;;;;;6.80;6.00;;;10.50;55.10;;;;;;5003330;28;20530;-47
2022/04/05 04:42:46;;;;;;;8.27;6.00;;;10.40;55.10;;;;;;5004503;28;20452;-47
2022/04/05 04:45:12;;;;;;;8.13;5.90;;;10.20;54.50;;;;;;4999820;28;20504;-48
2022/04/05 04:47:38;;;;;;;7.37;6.67;;;10.20;54.90;;;;;;5003480;28;20233;-45
2022/04/05 04:50:06;;;;;;;7.37;6.67;;;10.10;54.90;;;;;;4996669;28;20197;-46
2022/04/05 04:52:31;;;;;;;8.93;6.33;;;10.30;55.20;;;;;;5008189;28;20580;-47
2022/04/05 04:54:57;;;;;;;7.30;6.40;;;10.10;54.70;;;;;;5009757;28;20445;-46
2022/04/05 04:57:25;;;;;;;7.87;6.27;;;10.20;54.70;;;;;;5000515;28;20206;-48
2022/04/05 04:59:50;;;;;;;8.23;7.40;;;10.30;54.70;;;;;;5010044;28;20194;-44
2022/04/05 05:02:16;;;;;;;7.70;6.93;;;10.40;55.00;;;;;;5001291;28;20440;-46
2022/04/05 05:04:42;;;;;;;9.73;6.60;;;10.40;55.30;;;;;;5009294;28;20237;-47
2022/04/05 05:07:07;;;;;;;8.80;7.37;;;10.30;56.10;;;;;;5005760;28;20198;-48
2022/04/05 05:09:33;;;;;;;7.00;6.10;;;10.20;55.20;;;;;;5009721;28;20679;-46
2022/04/05 05:12:00;;;;;;;11.40;7.27;;;10.10;55.40;;;;;;4999380;28;20197;-46
2022/04/05 05:14:27;;;;;;;7.37;6.10;;;9.90;56.20;;;;;;5005094;28;22238;-46
2022/04/05 05:16:53;;;;;;;10.00;5.73;;;9.60;57.00;;;;;;5003955;28;21419;-47
2022/04/05 05:19:19;;;;;;;8.70;5.90;;;9.70;57.40;;;;;;5002174;28;20455;-45
2022/04/05 05:21:45;;;;;;;14.73;7.30;;;9.80;57.70;;;;;;5007419;28;20429;-48
2022/04/05 05:24:10;;;;;;;8.87;6.07;;;9.90;57.40;;;;;;5001470;28;21037;-44
2022/04/05 05:26:36;;;;;;;13.13;6.90;;;9.70;56.60;;;;;;5007611;28;20197;-43
2022/04/05 05:29:02;;;;;;;7.77;6.20;;;9.70;57.50;;;;;;4998687;28;20223;-43
2022/04/05 05:31:27;;;;;;;11.20;7.20;;;9.80;57.40;;;;;;5001130;28;20198;-47
2022/04/05 05:33:53;;;;;;;10.97;7.60;;;9.70;57.70;;;;;;5007015;28;20201;-46
2022/04/05 05:36:19;;;;;;;7.67;6.30;;;9.90;57.50;;;;;;5004863;28;20189;-46
2022/04/05 05:38:44;;;;;;;8.07;5.97;;;10.00;56.40;;;;;;5001940;28;20620;-43
2022/04/05 05:41:10;;;;;;;11.27;6.53;;;10.20;55.90;;;;;;5000996;28;20198;-44
2022/04/05 05:43:37;;;;;;;8.03;6.20;;;10.00;56.10;;;;;;5002369;28;20191;-47
2022/04/05 05:46:03;;;;;;;7.40;6.50;;;10.00;56.50;;;;;;5008196;28;20221;-44
2022/04/05 05:48:30;;;;;;;8.67;6.93;;;10.20;56.50;;;;;;5003154;28;20926;-46
2022/04/05 05:50:56;;;;;;;9.13;6.57;;;10.30;56.40;;;;;;5008434;28;20785;-44
2022/04/05 05:53:22;;;;;;;9.30;7.87;;;10.40;56.30;;;;;;5006637;28;20448;-45
2022/04/05 05:55:48;;;;;;;9.03;7.33;;;10.40;56.60;;;;;;5009035;28;20273;-48
2022/04/05 05:58:14;;;;;;;10.57;7.07;;;10.50;57.10;;;;;;5003196;28;20202;-47
2022/04/05 06:00:40;;;;;;;6.77;6.07;;;10.50;55.90;;;;;;5007417;28;20811;-45
2022/04/05 06:03:05;;;;;;;8.47;7.07;;;10.40;55.70;;;;;;5008644;28;20425;-44
2022/04/05 06:05:31;;;;;;;7.77;6.97;;;10.60;55.80;;;;;;5007335;28;20217;-46
2022/04/05 06:07:57;;;;;;;8.73;6.60;;;10.70;56.00;;;;;;4992371;28;20199;-45
2022/04/05 06:10:24;;;;;;;8.23;5.80;;;10.70;56.40;;;;;;5007117;28;20490;-44
2022/04/05 06:12:51;;;;;;;8.17;7.37;;;10.80;56.40;;;;;;5009778;28;20433;-48
2022/04/05 06:15:18;;;;;;;8.97;7.60;;;10.80;56.30;;;;;;5008784;28;20938;-44
2022/04/05 06:17:46;;;;;;;9.17;7.20;;;10.80;56.10;;;;;;5006276;28;20449;-49
2022/04/05 06:20:13;;;;;;;8.20;7.20;;;10.80;56.10;;;;;;4997491;28;20429;-46
2022/04/05 06:23:00;;;;;;;9.93;7.00;;;10.90;56.20;;;;;;5008734;28;20567;-44
2022/04/05 06:25:29;;;;;;;8.57;7.30;;;10.80;56.00;;;;;;5012584;28;20492;-45
2022/04/05 06:27:56;;;;;;;9.43;7.30;;;10.80;56.30;;;;;;5000496;28;20959;-46
2022/04/05 06:30:22;;;;;;;8.00;7.20;;;10.60;56.20;;;;;;5007950;28;20450;-47
2022/04/05 06:32:48;;;;;;;8.60;7.00;;;10.60;56.70;;;;;;5008921;28;20444;-45
2022/04/05 06:35:14;;;;;;;9.47;7.47;;;10.20;56.30;;;;;;5005242;28;20504;-44
2022/04/05 06:37:44;;;;;;;7.83;6.83;;;10.20;57.30;;;;;;5008936;28;20441;-47
2022/04/05 06:40:12;;;;;;;9.57;6.37;;;10.40;57.60;;;;;;5010378;28;20468;-47
2022/04/05 06:42:41;;;;;;;7.60;6.07;;;10.50;57.30;;;;;;5009454;28;20441;-46
2022/04/05 06:45:09;;;;;;;8.57;6.90;;;10.30;56.80;;;;;;5003659;28;20547;-44
2022/04/05 06:47:37;;;;;;;8.43;6.90;;;10.40;57.20;;;;;;5009432;28;20437;-44
2022/04/05 06:50:04;;;;;;;10.20;6.80;;;10.50;57.40;;;;;;5009893;28;20448;-45
2022/04/05 06:52:30;;;;;;;7.93;6.00;;;10.60;57.40;;;;;;5007565;28;20443;-47
2022/04/05 06:54:55;;;;;;;8.53;6.67;;;10.70;57.30;;;;;;5011152;28;20444;-44
2022/04/05 06:57:21;;;;;;;8.00;6.67;;;10.80;57.00;;;;;;5007972;28;20193;-45
2022/04/05 06:59:47;;;;;;;6.30;5.70;;;10.80;57.00;;;;;;5010136;28;20570;-44
2022/04/05 07:02:12;;;;;;;9.40;6.63;;;10.50;56.90;;;;;;5008815;28;20189;-43
2022/04/05 07:04:38;;;;;;;7.50;6.17;;;10.30;57.20;;;;;;5001317;28;20234;-46
2022/04/05 07:07:03;;;;;;;7.20;6.50;;;10.20;57.70;;;;;;5002546;28;20556;-43
2022/04/05 07:09:29;;;;;;;9.13;6.93;;;10.10;57.80;;;;;;5009835;28;20201;-44
2022/04/05 07:11:55;;;;;;;10.40;7.10;;;10.10;58.00;;;;;;5010588;28;20210;-43
2022/04/05 07:14:20;;;;;;;8.13;6.10;;;10.30;57.90;;;;;;5011041;28;20273;-41
2022/04/05 07:16:46;;;;;;;7.40;6.63;;;10.50;57.90;;;;;;5011917;28;20198;-45
2022/04/05 07:19:11;;;;;;;8.00;6.73;;;10.40;57.50;;;;;;5000816;28;20225;-44
2022/04/05 07:21:37;;;;;;;7.03;6.37;;;10.30;57.10;;;;;;5011760;28;20565;-44
2022/04/05 07:24:03;;;;;;;7.63;6.83;;;10.50;57.30;;;;;;5009802;28;20252;-41
2022/04/05 07:26:28;;;;;;;7.20;6.50;;;10.70;57.90;;;;;;5011174;28;20194;-42
2022/04/05 07:28:54;;;;;;;7.97;6.40;;;10.90;57.60;;;;;;5008469;28;20189;-44
2022/04/05 07:31:20;;;;;;;7.10;6.40;;;11.00;57.50;;;;;;5004677;28;20200;-44
2022/04/05 07:33:45;;;;;;;8.80;5.80;;;11.10;57.10;;;;;;5006514;28;20210;-44
2022/04/05 07:36:11;;;;;;;8.40;6.20;;;10.70;56.80;;;;;;5011259;28;20194;-45
2022/04/05 07:38:36;;;;;;;7.50;6.03;;;10.90;57.00;;;;;;5012661;28;20245;-47
2022/04/05 07:41:02;;;;;;;11.43;6.50;;;11.00;56.90;;;;;;5003091;28;20193;-44
2022/04/05 07:43:29;;;;;;;6.60;6.00;;;10.80;56.90;;;;;;5005770;28;20582;-44
2022/04/05 07:45:56;;;;;;;6.77;5.73;;;10.80;57.10;;;;;;5011712;28;20213;-48
2022/04/05 07:48:26;;;;;;;6.63;5.93;;;10.80;57.10;;;;;;4999815;28;20470;-47
2022/04/05 07:50:51;;;;;;;9.47;6.03;;;10.80;57.30;;;;;;5005930;28;20483;-46
2022/04/05 07:53:18;;;;;;;7.23;6.03;;;10.80;57.50;;;;;;4991965;28;21051;-45
2022/04/05 07:55:44;;;;;;;7.53;5.87;;;10.80;57.60;;;;;;5003511;28;20198;-46
2022/04/05 07:58:09;;;;;;;7.80;5.43;;;10.80;57.50;;;;;;5007691;28;20432;-44
2022/04/05 08:00:36;;;;;;;9.70;5.67;;;10.90;57.60;;;;;;5003145;28;20499;-44
2022/04/05 08:03:01;;;;;;;7.50;6.20;;;10.90;58.10;;;;;;5007995;28;20205;-45
2022/04/05 08:05:27;;;;;;;9.20;6.40;;;10.80;57.90;;;;;;5003620;28;20476;-43
2022/04/05 08:07:54;;;;;;;7.40;5.80;;;10.80;58.10;;;;;;5000127;28;20674;-46
2022/04/05 08:10:20;;;;;;;6.70;6.03;;;10.90;58.60;;;;;;5010927;28;20284;-44
2022/04/05 08:12:48;;;;;;;7.00;6.30;;;11.10;58.40;;;;;;5005621;28;20537;-44
2022/04/05 08:15:22;;;;;;;6.63;5.93;;;11.20;58.00;;;;;;5010527;28;20197;-46
2022/04/05 08:17:50;;;;;;;6.67;5.73;;;11.30;57.60;;;;;;5003365;28;20441;-46
2022/04/05 08:20:17;;;;;;;5.80;5.30;;;11.50;57.30;;;;;;5004370;28;20450;-44
2022/04/05 08:22:43;;;;;;;6.90;6.20;;;11.50;57.80;;;;;;5008982;28;20944;-44
2022/04/05 08:25:14;;;;;;;8.57;6.40;;;11.60;58.00;;;;;;5005032;28;20481;-45
2022/04/05 08:27:40;;;;;;;9.07;5.90;;;11.60;57.60;;;;;;5001476;28;20437;-45
2022/04/05 08:30:08;;;;;;;7.00;5.83;;;11.50;57.20;;;;;;5004307;28;20496;-46
2022/04/05 08:32:36;;;;;;;10.37;6.07;;;11.40;56.80;;;;;;5004953;28;20441;-45
2022/04/05 08:35:03;;;;;;;7.60;5.70;;;11.30;56.90;;;;;;5010137;28;20437;-43
2022/04/05 08:37:29;;;;;;;6.67;5.97;;;11.30;57.10;;;;;;5008132;28;20444;-45
2022/04/05 08:39:55;;;;;;;6.20;5.20;;;11.30;57.20;;;;;;5005105;28;20477;-43
2022/04/05 08:42:23;;;;;;;7.50;5.90;;;11.40;57.40;;;;;;5006080;28;20198;-43
2022/04/05 08:44:49;;;;;;;7.47;6.10;;;11.50;57.30;;;;;;5010109;28;20848;-47
2022/04/05 08:47:21;;;;;;;7.80;6.50;;;11.70;57.60;;;;;;5009941;28;20939;-45
2022/04/05 08:49:49;;;;;;;6.17;5.47;;;11.70;57.90;;;;;;5002820;28;20536;-45
2022/04/05 08:52:14;;;;;;;8.27;5.37;;;11.70;57.80;;;;;;5003171;28;20495;-45
2022/04/05 08:54:40;;;;;;;6.80;6.10;;;11.90;57.70;;;;;;5002614;28;20433;-47
2022/04/05 08:57:06;;;;;;;7.17;6.13;;;11.90;57.80;;;;;;5009668;28;20244;-46
2022/04/05 08:59:32;;;;;;;8.17;5.40;;;11.90;58.00;;;;;;5008430;28;20194;-45
2022/04/05 09:01:58;;;;;;;6.73;5.40;;;11.90;57.60;;;;;;5008948;28;20202;-44
2022/04/05 09:04:23;;;;;;;7.40;6.70;;;12.00;57.60;;;;;;5006428;28;20233;-45
2022/04/05 09:06:49;;;;;;;5.87;5.23;;;12.00;58.10;;;;;;4999595;28;20825;-44
2022/04/05 09:09:17;;;;;;;6.20;5.60;;;12.20;58.60;;;;;;5000988;28;20186;-48
2022/04/05 09:11:46;;;;;;;7.50;5.70;;;12.20;58.20;;;;;;5007170;28;20248;-44
2022/04/05 09:14:12;;;;;;;6.93;5.40;;;12.30;58.30;;;;;;5008441;28;20468;-44
2022/04/05 09:16:38;;;;;;;8.50;6.43;;;12.40;58.40;;;;;;5003238;28;20840;-47
2022/04/05 09:19:13;;;;;;;6.30;5.10;;;12.50;58.40;;;;;;5004179;28;20437;-47
2022/04/05 09:21:53;;;;;;;7.50;5.70;;;12.40;57.90;;;;;;5007419;28;20460;-47
2022/04/05 09:24:19;;;;;;;8.40;6.13;;;12.60;58.30;;;;;;5003307;28;21257;-44
2022/04/05 09:26:46;;;;;;;6.00;5.37;;;12.60;58.40;;;;;;5001278;28;20434;-45
2022/04/05 09:29:12;;;;;;;7.63;5.40;;;12.50;57.90;;;;;;5007944;28;20433;-44
2022/04/05 09:31:48;;;;;;;6.50;5.73;;;12.40;58.10;;;;;;5009018;28;20487;-45
2022/04/05 09:34:19;;;;;;;8.23;5.33;;;12.50;58.40;;;;;;5001779;28;20960;-45
2022/04/05 09:36:48;;;;;;;7.07;5.33;;;12.50;58.10;;;;;;5004792;28;20923;-44
2022/04/05 09:39:19;;;;;;;6.47;5.37;;;12.40;58.30;;;;;;5006868;28;20465;-47
2022/04/05 09:41:46;;;;;;;5.80;5.20;;;12.40;58.30;;;;;;5009260;28;20443;-47
2022/04/05 09:44:11;;;;;;;6.23;5.47;;;12.20;58.10;;;;;;5008228;28;20975;-44
2022/04/05 09:46:40;;;;;;;6.00;5.50;;;12.10;59.10;;;;;;5005498;28;20433;-48
2022/04/05 09:49:13;;;;;;;5.80;5.20;;;12.00;58.70;;;;;;5003691;28;20735;-46
2022/04/05 09:51:46;;;;;;;6.70;5.77;;;12.10;59.00;;;;;;5009303;28;20451;-46
2022/04/05 09:54:27;;;;;;;9.50;5.83;;;12.10;59.50;;;;;;5003439;28;21215;-45
2022/04/05 09:57:00;;;;;;;9.43;6.60;;;12.10;59.90;;;;;;5002555;28;20498;-44
2022/04/05 09:59:34;;;;;;;6.10;5.50;;;12.30;59.40;;;;;;5007654;28;20447;-46
2022/04/05 10:02:11;;;;;;;6.53;5.00;;;12.40;59.10;;;;;;5006218;28;20476;-45
2022/04/05 10:04:59;;;;;;;6.53;5.07;;;12.20;58.80;;;;;;5006377;28;21011;-44
2022/04/05 10:07:30;;;;;;;5.93;4.53;;;12.40;59.40;;;;;;5008078;28;20460;-45
2022/04/05 10:09:57;;;;;;;7.00;4.97;;;12.30;59.50;;;;;;5005305;28;21342;-45
2022/04/05 10:12:24;;;;;;;5.83;4.87;;;12.20;58.80;;;;;;5008623;28;20453;-45
2022/04/05 10:14:49;;;;;;;8.50;4.77;;;12.20;59.50;;;;;;5005124;28;20441;-44
2022/04/05 10:17:17;;;;;;;7.00;6.00;;;12.30;59.50;;;;;;5007839;28;20433;-46
2022/04/05 10:19:48;;;;;;;8.50;6.20;;;12.30;59.10;;;;;;5005077;28;20202;-44
2022/04/05 10:22:16;;;;;;;6.80;5.47;;;12.30;59.40;;;;;;5000615;28;20433;-45
2022/04/05 10:24:42;;;;;;;11.70;6.83;;;12.60;59.60;;;;;;5006778;28;20510;-46
2022/04/05 10:27:10;;;;;;;8.10;6.20;;;12.70;59.60;;;;;;5007962;28;20483;-44
2022/04/05 10:29:36;;;;;;;7.67;6.20;;;12.80;59.70;;;;;;5003314;28;20779;-45
2022/04/05 10:32:13;;;;;;;6.80;6.20;;;12.80;59.50;;;;;;5007059;28;20457;-45
2022/04/05 10:34:49;;;;;;;9.97;6.10;;;12.90;59.50;;;;;;5007032;28;20528;-44
2022/04/05 10:37:19;;;;;;;6.60;6.00;;;12.70;59.30;;;;;;5003828;28;21013;-46
2022/04/05 10:39:57;;;;;;;6.87;6.17;;;12.60;60.60;;;;;;5001447;28;20503;-45
2022/04/05 10:42:25;;;;;;;7.27;5.43;;;12.60;60.90;;;;;;5007710;28;20436;-46
2022/04/05 10:45:18;;;;;;;5.97;5.47;;;12.60;61.20;;;;;;5008354;28;20500;-46
2022/04/05 10:48:10;;;;;;;7.40;5.70;;;12.60;61.40;;;;;;5007346;28;20527;-44
2022/04/05 10:50:35;;;;;;;6.60;5.80;;;12.80;61.40;;;;;;5003176;28;20849;-46
2022/04/05 10:53:20;;;;;;;6.93;5.40;;;12.90;61.30;;;;;;4997744;28;20496;-44
2022/04/05 10:56:06;;;;;;;8.53;6.27;;;13.00;60.80;;;;;;5001955;28;20208;-48
2022/04/05 10:58:47;;;;;;;6.77;5.50;;;13.10;60.60;;;;;;4995208;28;20436;-45
2022/04/05 11:01:12;;;;;;;5.93;5.43;;;13.00;60.10;;;;;;5008149;28;20456;-45
2022/04/05 11:03:38;;;;;;;7.53;5.13;;;13.00;59.80;;;;;;5001860;28;20456;-49
2022/04/05 11:06:04;;;;;;;6.43;5.40;;;13.10;59.80;;;;;;5005815;28;20190;-45
2022/04/05 11:08:32;;;;;;;6.97;6.27;;;13.00;59.10;;;;;;5008283;28;20204;-50
2022/04/05 11:11:02;;;;;;;8.20;5.70;;;12.70;59.30;;;;;;5011409;28;20440;-48
2022/04/05 11:13:40;;;;;;;5.40;4.90;;;12.80;59.50;;;;;;5012138;28;20762;-50
2022/04/05 11:16:10;;;;;;;6.27;5.20;;;13.00;59.50;;;;;;5007798;28;20485;-49
2022/04/05 11:18:37;;;;;;;9.30;6.40;;;12.90;59.50;;;;;;5010110;28;20533;-46
2022/04/05 11:21:08;;;;;;;5.53;5.03;;;12.90;59.50;;;;;;5005438;28;20441;-49
2022/04/05 11:23:42;;;;;;;6.60;6.00;;;13.00;59.40;;;;;;5006303;28;20502;-48
2022/04/05 11:26:28;;;;;;;5.77;5.17;;;13.00;59.70;;;;;;5010920;28;20468;-45
2022/04/05 11:28:55;;;;;;;9.00;6.40;;;13.10;59.90;;;;;;5009303;28;20494;-48
2022/04/05 11:31:37;;;;;;;7.10;6.40;;;13.20;59.90;;;;;;5004997;28;20469;-48
2022/04/05 11:34:39;;;;;;;6.50;5.80;;;13.20;59.60;;;;;;5002575;28;20488;-45
2022/04/05 11:37:07;;;;;;;6.90;6.07;;;13.20;59.50;;;;;;4998890;28;20871;-45
2022/04/05 11:39:40;;;;;;;6.67;5.97;;;13.20;60.60;;;;;;5003993;28;20461;-47
2022/04/05 11:42:06;;;;;;;6.23;5.63;;;13.10;61.20;;;;;;5009893;28;20444;-47
2022/04/05 11:44:32;;;;;;;6.63;5.30;;;13.20;60.60;;;;;;4998876;28;20480;-50
2022/04/05 11:47:00;;;;;;;6.00;5.40;;;13.30;61.10;;;;;;5001119;28;20290;-47
2022/04/05 11:49:26;;;;;;;5.97;5.27;;;13.30;61.10;;;;;;5007694;28;20194;-49
2022/04/05 11:51:53;;;;;;;8.73;4.93;;;13.20;61.10;;;;;;5009422;28;20947;-45
2022/04/05 11:54:24;;;;;;;4.23;3.87;;;13.20;61.50;;;;;;5009919;28;20440;-44
2022/04/05 11:56:50;;;;;;;4.77;4.27;;;13.20;62.20;;;;;;5009648;28;20436;-45
2022/04/05 11:59:18;;;;;;;5.83;5.23;;;13.20;62.20;;;;;;5010618;28;21003;-45
2022/04/05 12:01:50;;;;;;;4.50;3.93;;;13.30;62.50;;;;;;5006704;28;20465;-44
2022/04/05 12:04:18;;;;;;;4.17;3.77;;;13.00;61.60;;;;;;5000974;28;20512;-45
2022/04/05 12:06:46;;;;;;;4.83;4.33;;;13.00;63.50;;;;;;4997233;28;20440;-45
2022/04/05 12:09:14;;;;;;;5.00;4.50;;;13.30;63.50;;;;;;5010103;28;22392;-44
2022/04/05 12:11:42;;;;;;;5.93;5.33;;;13.60;63.60;;;;;;4999814;28;20532;-48
2022/04/05 12:14:10;;;;;;;9.20;5.23;;;13.80;63.00;;;;;;5006707;28;20763;-46
2022/04/05 12:16:52;;;;;;;5.60;5.10;;;13.80;62.20;;;;;;4984461;28;20958;-47
2022/04/05 12:19:43;;;;;;;7.43;5.20;;;14.10;61.70;;;;;;5007677;28;20443;-44
2022/04/05 12:22:18;;;;;;;6.00;5.03;;;14.10;61.00;;;;;;5004292;28;20576;-46
2022/04/05 12:24:50;;;;;;;7.10;5.70;;;14.20;61.90;;;;;;5006867;28;20527;-44
2022/04/05 12:27:22;;;;;;;10.00;5.13;;;14.30;61.00;;;;;;5001687;28;20441;-44
2022/04/05 12:29:48;;;;;;;4.73;3.80;;;14.30;60.90;;;;;;4997394;28;20441;-46
2022/04/05 12:32:14;;;;;;;5.13;4.73;;;14.30;59.50;;;;;;5002433;28;20440;-46
2022/04/05 12:34:41;;;;;;;5.03;4.53;;;14.10;58.70;;;;;;5005413;28;20236;-47
2022/04/05 12:37:14;;;;;;;5.40;4.90;;;13.90;58.60;;;;;;5007304;28;20532;-45
2022/04/05 12:39:45;;;;;;;5.40;4.80;;;13.90;59.20;;;;;;5003796;28;20498;-45
2022/04/05 12:42:11;;;;;;;5.40;4.57;;;13.90;59.30;;;;;;5009257;28;20443;-45
2022/04/05 12:44:44;;;;;;;6.50;5.07;;;14.00;59.30;;;;;;5004772;28;20493;-45
2022/04/05 12:47:15;;;;;;;5.60;4.93;;;13.70;59.10;;;;;;5009363;28;20197;-49
2022/04/05 12:49:43;;;;;;;6.13;5.17;;;13.70;59.30;;;;;;5002515;28;20456;-45
2022/04/05 12:52:17;;;;;;;5.90;5.20;;;13.80;59.40;;;;;;5002313;28;21017;-47